sensor_id;sensor_type;location;lat;lon;timestamp;P1;durP1;ratioP1;P2;durP2;ratioP2
55368;SDS011;41247;49.736;8.752;2023-11-18T08:04:47;30.95;;;13.32;;
55368;SDS011;41247;49.736;8.752;2023-11-18T08:08:28;36.85;;;14.55;;
55368;SDS011;41247;49.736;8.752;2023-11-18T08:12:09;32.67;;;13.57;;
55368;SDS011;41247;49.736;8.752;2023-11-18T08:15:49;27.95;;;12.32;;
55368;SDS011;41247;49.736;8.752;2023-11-18T08:19:30;32.80;;;13.70;;
55368;SDS011;41247;49.736;8.752;2023-11-18T09:43:56;23.75;;;11.05;;
55368;SDS011;41247;49.736;8.752;2023-11-18T10:01:28;25.48;;;11.05;;
55368;SDS011;41247;49.736;8.752;2023-11-18T10:05:21;22.17;;;9.45;;
55368;SDS011;41247;49.736;8.752;2023-11-18T10:09:12;20.25;;;9.48;;
55368;SDS011;41247;49.736;8.752;2023-11-18T10:12:58;22.05;;;10.23;;
55368;SDS011;41247;49.736;8.752;2023-11-18T10:16:46;22.80;;;10.27;;
55368;SDS011;41247;49.736;8.752;2023-11-18T10:24:19;18.48;;;9.82;;
55368;SDS011;41247;49.736;8.752;2023-11-18T10:28:01;18.92;;;9.65;;
55368;SDS011;41247;49.736;8.752;2023-11-18T10:31:41;19.05;;;10.18;;
55368;SDS011;41247;49.736;8.752;2023-11-18T10:35:22;21.52;;;10.70;;
55368;SDS011;41247;49.736;8.752;2023-11-18T10:39:05;21.45;;;9.85;;
55368;SDS011;41247;49.736;8.752;2023-11-18T10:42:53;17.52;;;8.82;;
55368;SDS011;41247;49.736;8.752;2023-11-18T10:46:34;19.88;;;9.05;;
55368;SDS011;41247;49.736;8.752;2023-11-18T10:50:20;16.50;;;8.82;;
55368;SDS011;41247;49.736;8.752;2023-11-18T10:54:01;14.63;;;7.75;;
55368;SDS011;41247;49.736;8.752;2023-11-18T10:57:45;14.55;;;7.72;;
55368;SDS011;41247;49.736;8.752;2023-11-18T11:01:29;13.15;;;7.53;;
55368;SDS011;41247;49.736;8.752;2023-11-18T11:05:11;16.10;;;7.45;;
55368;SDS011;41247;49.736;8.752;2023-11-18T11:12:48;14.20;;;7.90;;
55368;SDS011;41247;49.736;8.752;2023-11-18T11:16:40;14.80;;;8.02;;
55368;SDS011;41247;49.736;8.752;2023-11-18T11:20:22;18.63;;;8.55;;
55368;SDS011;41247;49.736;8.752;2023-11-18T11:24:05;16.80;;;8.35;;
55368;SDS011;41247;49.736;8.752;2023-11-18T11:31:41;13.30;;;7.45;;
55368;SDS011;41247;49.736;8.752;2023-11-18T11:35:33;18.25;;;7.30;;
55368;SDS011;41247;49.736;8.752;2023-11-18T11:39:17;14.20;;;6.80;;
55368;SDS011;41247;49.736;8.752;2023-11-18T11:42:59;11.88;;;6.70;;
55368;SDS011;41247;49.736;8.752;2023-11-18T11:46:43;12.55;;;6.70;;
55368;SDS011;41247;49.736;8.752;2023-11-18T11:50:27;15.90;;;6.88;;
55368;SDS011;41247;49.736;8.752;2023-11-18T11:54:13;11.35;;;5.45;;
55368;SDS011;41247;49.736;8.752;2023-11-18T11:58:57;9.30;;;5.28;;
55368;SDS011;41247;49.736;8.752;2023-11-18T12:02:20;12.57;;;5.80;;
55368;SDS011;41247;49.736;8.752;2023-11-18T12:06:02;12.95;;;5.38;;
55368;SDS011;41247;49.736;8.752;2023-11-18T12:09:46;15.18;;;5.88;;
55368;SDS011;41247;49.736;8.752;2023-11-18T12:13:27;11.95;;;5.00;;
55368;SDS011;41247;49.736;8.752;2023-11-18T12:17:08;10.38;;;4.70;;
55368;SDS011;41247;49.736;8.752;2023-11-18T12:20:48;10.00;;;4.30;;
55368;SDS011;41247;49.736;8.752;2023-11-18T12:24:29;6.60;;;3.33;;
55368;SDS011;41247;49.736;8.752;2023-11-18T12:28:16;10.02;;;3.30;;
55368;SDS011;41247;49.736;8.752;2023-11-18T12:31:57;9.75;;;3.20;;
55368;SDS011;41247;49.736;8.752;2023-11-18T12:35:55;11.25;;;3.35;;
55368;SDS011;41247;49.736;8.752;2023-11-18T12:44:02;5.13;;;2.83;;
55368;SDS011;41247;49.736;8.752;2023-11-18T12:48:09;8.68;;;2.78;;
55368;SDS011;41247;49.736;8.752;2023-11-18T12:51:55;7.75;;;2.85;;
55368;SDS011;41247;49.736;8.752;2023-11-18T12:55:35;7.30;;;2.88;;
55368;SDS011;41247;49.736;8.752;2023-11-18T12:59:16;11.25;;;3.17;;
55368;SDS011;41247;49.736;8.752;2023-11-18T13:02:57;10.45;;;2.90;;
55368;SDS011;41247;49.736;8.752;2023-11-18T13:06:37;6.53;;;2.58;;
55368;SDS011;41247;49.736;8.752;2023-11-18T13:10:19;6.20;;;2.60;;
55368;SDS011;41247;49.736;8.752;2023-11-18T13:13:59;7.85;;;2.80;;
55368;SDS011;41247;49.736;8.752;2023-11-18T13:17:40;5.75;;;2.50;;
55368;SDS011;41247;49.736;8.752;2023-11-18T13:21:22;5.50;;;2.58;;
55368;SDS011;41247;49.736;8.752;2023-11-18T13:25:02;6.07;;;2.45;;
55368;SDS011;41247;49.736;8.752;2023-11-18T13:28:43;4.65;;;2.83;;
55368;SDS011;41247;49.736;8.752;2023-11-18T13:32:26;7.55;;;3.10;;
55368;SDS011;41247;49.736;8.752;2023-11-18T13:36:06;7.07;;;2.78;;
55368;SDS011;41247;49.736;8.752;2023-11-18T13:39:54;6.65;;;3.30;;
55368;SDS011;41247;49.736;8.752;2023-11-18T13:43:45;9.07;;;3.10;;
55368;SDS011;41247;49.736;8.752;2023-11-18T13:47:27;9.52;;;2.97;;
55368;SDS011;41247;49.736;8.752;2023-11-18T13:51:08;7.22;;;3.10;;
55368;SDS011;41247;49.736;8.752;2023-11-18T13:54:51;6.63;;;2.55;;
55368;SDS011;41247;49.736;8.752;2023-11-18T13:58:32;7.63;;;2.95;;
55368;SDS011;41247;49.736;8.752;2023-11-18T14:02:12;7.05;;;2.88;;
55368;SDS011;41247;49.736;8.752;2023-11-18T14:05:57;12.25;;;3.10;;
55368;SDS011;41247;49.736;8.752;2023-11-18T14:09:38;7.20;;;3.30;;
55368;SDS011;41247;49.736;8.752;2023-11-18T14:13:19;10.40;;;3.10;;
55368;SDS011;41247;49.736;8.752;2023-11-18T14:17:00;7.95;;;2.70;;
55368;SDS011;41247;49.736;8.752;2023-11-18T14:20:40;6.53;;;2.42;;
55368;SDS011;41247;49.736;8.752;2023-11-18T14:24:21;4.25;;;2.60;;
55368;SDS011;41247;49.736;8.752;2023-11-18T14:28:02;6.63;;;2.70;;
55368;SDS011;41247;49.736;8.752;2023-11-18T14:31:44;7.68;;;3.00;;
55368;SDS011;41247;49.736;8.752;2023-11-18T14:35:25;6.13;;;2.47;;
55368;SDS011;41247;49.736;8.752;2023-11-18T14:39:06;8.48;;;3.15;;
55368;SDS011;41247;49.736;8.752;2023-11-18T14:42:48;4.32;;;2.50;;
55368;SDS011;41247;49.736;8.752;2023-11-18T14:46:30;5.25;;;2.53;;
55368;SDS011;41247;49.736;8.752;2023-11-18T14:50:11;5.00;;;2.30;;
55368;SDS011;41247;49.736;8.752;2023-11-18T14:53:52;7.55;;;2.45;;
55368;SDS011;41247;49.736;8.752;2023-11-18T14:57:32;3.50;;;2.40;;
55368;SDS011;41247;49.736;8.752;2023-11-18T15:01:13;7.38;;;2.90;;
55368;SDS011;41247;49.736;8.752;2023-11-18T15:04:53;7.90;;;2.25;;
55368;SDS011;41247;49.736;8.752;2023-11-18T15:08:34;5.35;;;2.58;;
55368;SDS011;41247;49.736;8.752;2023-11-18T15:12:15;5.78;;;2.40;;
55368;SDS011;41247;49.736;8.752;2023-11-18T15:15:55;7.28;;;2.03;;
55368;SDS011;41247;49.736;8.752;2023-11-18T15:19:36;5.78;;;2.10;;
55368;SDS011;41247;49.736;8.752;2023-11-18T15:23:16;7.60;;;2.03;;
55368;SDS011;41247;49.736;8.752;2023-11-18T15:26:57;8.40;;;2.08;;
55368;SDS011;41247;49.736;8.752;2023-11-18T15:30:39;9.20;;;2.30;;
55368;SDS011;41247;49.736;8.752;2023-11-18T15:34:20;5.05;;;1.88;;
55368;SDS011;41247;49.736;8.752;2023-11-18T15:38:00;5.90;;;2.50;;
55368;SDS011;41247;49.736;8.752;2023-11-18T15:41:41;7.43;;;2.33;;
55368;SDS011;41247;49.736;8.752;2023-11-18T15:45:22;8.00;;;2.60;;
55368;SDS011;41247;49.736;8.752;2023-11-18T15:49:03;6.10;;;2.58;;
55368;SDS011;41247;49.736;8.752;2023-11-18T15:52:50;5.67;;;3.13;;
55368;SDS011;41247;49.736;8.752;2023-11-18T15:56:34;6.75;;;3.00;;
55368;SDS011;41247;49.736;8.752;2023-11-18T16:00:14;9.73;;;3.20;;
55368;SDS011;41247;49.736;8.752;2023-11-18T16:04:10;7.70;;;4.03;;
55368;SDS011;41247;49.736;8.752;2023-11-18T16:07:51;8.15;;;3.80;;
55368;SDS011;41247;49.736;8.752;2023-11-18T16:11:43;16.38;;;4.43;;
55368;SDS011;41247;49.736;8.752;2023-11-18T16:15:27;9.82;;;4.03;;
55368;SDS011;41247;49.736;8.752;2023-11-18T16:27:18;7.25;;;4.07;;
55368;SDS011;41247;49.736;8.752;2023-11-18T16:30:59;9.45;;;4.82;;
55368;SDS011;41247;49.736;8.752;2023-11-18T16:34:40;10.02;;;4.50;;
55368;SDS011;41247;49.736;8.752;2023-11-18T16:38:20;8.25;;;4.18;;
55368;SDS011;41247;49.736;8.752;2023-11-18T16:42:01;8.18;;;4.20;;
55368;SDS011;41247;49.736;8.752;2023-11-18T16:45:41;9.00;;;4.38;;
55368;SDS011;41247;49.736;8.752;2023-11-18T16:49:22;8.90;;;4.55;;
55368;SDS011;41247;49.736;8.752;2023-11-18T16:53:03;8.73;;;4.75;;
55368;SDS011;41247;49.736;8.752;2023-11-18T16:56:43;11.48;;;4.82;;
55368;SDS011;41247;49.736;8.752;2023-11-18T17:00:24;11.98;;;5.00;;
55368;SDS011;41247;49.736;8.752;2023-11-18T17:04:04;13.20;;;4.57;;
55368;SDS011;41247;49.736;8.752;2023-11-18T17:07:45;12.05;;;4.90;;
55368;SDS011;41247;49.736;8.752;2023-11-18T17:11:26;11.93;;;5.40;;
55368;SDS011;41247;49.736;8.752;2023-11-18T17:15:07;8.57;;;4.65;;
55368;SDS011;41247;49.736;8.752;2023-11-18T17:18:48;10.98;;;5.30;;
55368;SDS011;41247;49.736;8.752;2023-11-18T17:22:29;11.43;;;5.07;;
55368;SDS011;41247;49.736;8.752;2023-11-18T17:26:09;11.50;;;5.00;;
55368;SDS011;41247;49.736;8.752;2023-11-18T18:36:49;9.25;;;4.80;;
55368;SDS011;41247;49.736;8.752;2023-11-18T18:40:30;10.10;;;4.80;;
55368;SDS011;41247;49.736;8.752;2023-11-18T18:44:14;8.55;;;4.93;;
55368;SDS011;41247;49.736;8.752;2023-11-18T18:47:57;13.43;;;4.05;;
55368;SDS011;41247;49.736;8.752;2023-11-18T18:55:46;6.95;;;2.80;;
55368;SDS011;41247;49.736;8.752;2023-11-18T18:59:54;5.72;;;2.50;;
55368;SDS011;41247;49.736;8.752;2023-11-18T19:03:38;6.32;;;2.45;;
55368;SDS011;41247;49.736;8.752;2023-11-18T19:11:45;5.13;;;2.30;;
55368;SDS011;41247;49.736;8.752;2023-11-18T19:15:52;8.50;;;2.60;;
55368;SDS011;41247;49.736;8.752;2023-11-18T19:19:32;7.68;;;2.55;;
55368;SDS011;41247;49.736;8.752;2023-11-18T19:23:18;9.30;;;2.75;;
55368;SDS011;41247;49.736;8.752;2023-11-18T21:34:39;10.38;;;4.53;;
55368;SDS011;41247;49.736;8.752;2023-11-18T21:38:19;11.35;;;4.60;;
55368;SDS011;41247;49.736;8.752;2023-11-18T21:42:00;10.18;;;4.68;;
55368;SDS011;41247;49.736;8.752;2023-11-18T21:45:48;6.70;;;4.15;;
55368;SDS011;41247;49.736;8.752;2023-11-18T21:49:29;10.88;;;4.15;;
55368;SDS011;41247;49.736;8.752;2023-11-18T21:53:10;5.28;;;3.38;;
55368;SDS011;41247;49.736;8.752;2023-11-18T21:56:51;6.28;;;4.28;;
55368;SDS011;41247;49.736;8.752;2023-11-18T22:00:32;4.55;;;3.50;;
55368;SDS011;41247;49.736;8.752;2023-11-18T22:04:13;3.95;;;2.78;;
55368;SDS011;41247;49.736;8.752;2023-11-18T22:07:53;8.05;;;3.63;;
55368;SDS011;41247;49.736;8.752;2023-11-18T22:11:34;4.97;;;2.67;;
55368;SDS011;41247;49.736;8.752;2023-11-18T22:15:14;6.45;;;3.05;;
55368;SDS011;41247;49.736;8.752;2023-11-18T22:18:55;4.35;;;2.40;;
55368;SDS011;41247;49.736;8.752;2023-11-18T22:22:36;2.50;;;1.50;;
55368;SDS011;41247;49.736;8.752;2023-11-18T22:26:16;6.03;;;1.88;;
55368;SDS011;41247;49.736;8.752;2023-11-18T22:29:57;1.98;;;1.50;;
55368;SDS011;41247;49.736;8.752;2023-11-18T22:33:43;5.07;;;1.95;;
55368;SDS011;41247;49.736;8.752;2023-11-18T22:37:23;3.65;;;1.83;;
55368;SDS011;41247;49.736;8.752;2023-11-18T22:41:07;5.15;;;1.50;;
55368;SDS011;41247;49.736;8.752;2023-11-18T22:44:57;4.75;;;2.03;;
55368;SDS011;41247;49.736;8.752;2023-11-18T22:48:37;2.15;;;1.60;;
55368;SDS011;41247;49.736;8.752;2023-11-18T22:52:18;2.85;;;1.60;;
55368;SDS011;41247;49.736;8.752;2023-11-18T22:56:01;3.53;;;1.77;;
55368;SDS011;41247;49.736;8.752;2023-11-18T22:59:41;2.45;;;1.45;;
55368;SDS011;41247;49.736;8.752;2023-11-18T23:03:22;2.47;;;1.55;;
55368;SDS011;41247;49.736;8.752;2023-11-18T23:07:03;2.55;;;1.65;;
55368;SDS011;41247;49.736;8.752;2023-11-18T23:10:44;3.08;;;1.77;;
55368;SDS011;41247;49.736;8.752;2023-11-18T23:14:24;5.38;;;2.05;;
55368;SDS011;41247;49.736;8.752;2023-11-18T23:18:05;2.95;;;1.88;;
55368;SDS011;41247;49.736;8.752;2023-11-18T23:21:59;2.63;;;2.17;;
55368;SDS011;41247;49.736;8.752;2023-11-18T23:25:39;5.78;;;2.38;;
55368;SDS011;41247;49.736;8.752;2023-11-18T23:29:20;3.50;;;2.38;;
55368;SDS011;41247;49.736;8.752;2023-11-18T23:33:01;4.28;;;2.55;;
55368;SDS011;41247;49.736;8.752;2023-11-18T23:36:41;8.02;;;3.13;;
55368;SDS011;41247;49.736;8.752;2023-11-18T23:40:22;6.72;;;3.92;;
55368;SDS011;41247;49.736;8.752;2023-11-18T23:44:02;5.22;;;2.80;;
55368;SDS011;41247;49.736;8.752;2023-11-18T23:47:43;7.63;;;3.90;;
55368;SDS011;41247;49.736;8.752;2023-11-18T23:51:24;3.88;;;3.00;;
55368;SDS011;41247;49.736;8.752;2023-11-18T23:55:04;6.50;;;3.55;;
55368;SDS011;41247;49.736;8.752;2023-11-18T23:58:45;4.88;;;3.13;;
